Time;durP1;ratioP1;P1;durP2;ratioP2;P2;SDS_P1;SDS_P2;PMS_P1;PMS_P2;Temp;Humidity;BMP_temperature;BMP_pressure;BME280_temperature;BME280_humidity;BME280_pressure;Samples;Min_cycle;Max_cycle;Signal;HPM_P1;HPM_P2
2023/07/24 00:00:13;;;;;;;;;8.00;8.00;;;;;26.37;100.00;98183.53;6246567;27;96293;-72
2023/07/24 00:03:16;;;;;;;;;10.00;10.00;;;;;26.34;100.00;98178.69;6254148;27;96931;-72
2023/07/24 00:06:20;;;;;;;;;6.00;6.00;;;;;26.30;100.00;98173.00;6239661;27;96951;-72
2023/07/24 00:09:23;;;;;;;;;6.00;5.00;;;;;26.32;100.00;98176.25;6241710;28;96428;-72
2023/07/24 00:12:26;;;;;;;;;5.00;5.00;;;;;26.30;100.00;98173.00;6223938;28;96775;-73
2023/07/24 00:15:31;;;;;;;;;8.00;7.20;;;;;26.29;100.00;98171.44;6264218;27;97031;-72
2023/07/24 00:18:34;;;;;;;;;6.00;5.75;;;;;26.26;100.00;98172.09;6265192;27;96603;-72
2023/07/24 00:21:37;;;;;;;;;6.00;6.00;;;;;26.19;100.00;98171.81;6265434;27;96356;-73
2023/07/24 00:24:41;;;;;;;;;4.60;4.00;;;;;26.19;100.00;98166.31;6252243;27;98551;-72
2023/07/24 00:27:44;;;;;;;;;6.00;5.00;;;;;26.19;100.00;98163.53;6223325;28;98467;-72
2023/07/24 00:30:50;;;;;;;;;8.50;7.50;;;;;26.16;100.00;98156.72;6240910;28;96262;-72
2023/07/24 00:33:53;;;;;;;;;8.00;8.00;;;;;26.13;100.00;98160.19;6239367;28;96408;-72
2023/07/24 00:36:56;;;;;;;;;7.60;7.00;;;;;26.09;100.00;98147.41;6240955;28;96333;-72
2023/07/24 00:40:00;;;;;;;;;6.00;5.40;;;;;26.12;100.00;98150.28;6240324;27;98613;-72
2023/07/24 00:43:03;;;;;;;;;4.00;3.60;;;;;26.13;100.00;98148.31;6255421;27;96248;-72
2023/07/24 00:46:07;;;;;;;;;8.00;7.50;;;;;26.13;100.00;98148.31;6250916;27;96555;-72
2023/07/24 00:49:11;;;;;;;;;7.00;6.60;;;;;26.14;100.00;98147.19;6247809;27;96845;-73
2023/07/24 00:52:15;;;;;;;;;7.40;7.40;;;;;26.16;100.00;98136.56;6265918;27;96587;-72
2023/07/24 00:55:20;;;;;;;;;6.00;6.00;;;;;26.19;100.00;98156.03;6263063;27;98367;-72
2023/07/24 00:58:23;;;;;;;;;6.00;6.00;;;;;26.24;100.00;98155.84;6264309;27;96853;-73
2023/07/24 01:01:29;;;;;;;;;7.80;7.40;;;;;26.19;100.00;98142.22;6247508;27;96768;-73
2023/07/24 01:04:32;;;;;;;;;6.00;5.00;;;;;26.23;100.00;98142.41;6264842;27;96363;-71
2023/07/24 01:07:36;;;;;;;;;5.00;4.80;;;;;26.20;100.00;98146.59;6265394;27;96591;-73
2023/07/24 01:10:39;;;;;;;;;7.80;7.80;;;;;26.20;100.00;98143.03;6264058;27;96362;-71
2023/07/24 01:13:49;;;;;;;;;6.75;5.50;;;;;26.14;100.00;98139.69;6264526;27;96374;-71
2023/07/24 01:16:56;;;;;;;;;6.00;5.80;;;;;26.11;100.00;98145.06;6225783;28;99509;-71
2023/07/24 01:20:02;;;;;;;;;7.40;6.00;;;;;26.11;100.00;98153.38;6253757;27;96361;-72
2023/07/24 01:23:21;;;;;;;;;6.20;6.20;;;;;26.04;100.00;98147.59;6240127;28;96893;-71
2023/07/24 01:26:26;;;;;;;;;6.20;6.00;;;;;25.99;100.00;98145.06;6239176;28;97007;-72
2023/07/24 01:29:30;;;;;;;;;7.40;7.40;;;;;25.98;100.00;98148.97;6240167;27;96996;-72
2023/07/24 01:32:33;;;;;;;;;7.00;6.40;;;;;25.97;100.00;98144.56;6258333;27;96806;-72
2023/07/24 01:35:39;;;;;;;;;7.50;7.00;;;;;25.92;100.00;98140.06;6260179;27;98493;-72
2023/07/24 01:38:43;;;;;;;;;8.40;7.40;;;;;25.83;100.00;98129.13;6238987;28;96372;-72
2023/07/24 01:41:48;;;;;;;;;8.00;7.00;;;;;25.78;100.00;98123.81;6237744;28;97477;-72
2023/07/24 01:44:55;;;;;;;;;6.20;5.20;;;;;25.71;100.00;98118.03;6249032;27;96291;-72
2023/07/24 01:47:58;;;;;;;;;6.50;5.50;;;;;25.78;100.00;98121.06;6263374;27;96598;-73
2023/07/24 01:51:03;;;;;;;;;6.20;6.00;;;;;25.85;100.00;98124.06;6263433;27;96848;-72
2023/07/24 01:54:06;;;;;;;;;8.40;6.40;;;;;25.91;100.00;98126.59;6246228;27;96650;-72
2023/07/24 01:57:10;;;;;;;;;8.20;7.20;;;;;25.94;100.00;98126.75;6263380;27;98498;-72
2023/07/24 02:00:14;;;;;;;;;6.60;5.60;;;;;25.88;100.00;98117.06;6239868;27;97083;-72
2023/07/24 02:03:17;;;;;;;;;6.20;6.00;;;;;25.99;100.00;98129.31;6238080;28;96381;-72
2023/07/24 02:06:20;;;;;;;;;6.00;5.25;;;;;26.08;100.00;98123.69;6238425;27;98430;-72
2023/07/24 02:09:23;;;;;;;;;5.25;5.25;;;;;26.17;100.00;98127.97;6256746;27;96376;-72
2023/07/24 02:12:28;;;;;;;;;7.40;6.40;;;;;26.29;100.00;98129.97;6264314;27;96794;-72
2023/07/24 02:15:31;;;;;;;;;8.00;7.75;;;;;26.38;100.00;98140.94;6242102;27;99073;-72
2023/07/24 02:18:34;;;;;;;;;7.20;7.00;;;;;26.45;100.00;98138.38;6241594;27;96388;-72
2023/07/24 02:21:38;;;;;;;;;7.00;6.00;;;;;26.48;100.00;98134.94;6262026;27;96606;-72
2023/07/24 02:24:41;;;;;;;;;4.75;4.75;;;;;26.55;100.00;98135.97;6229332;27;98699;-72
2023/07/24 02:27:45;;;;;;;;;6.00;6.00;;;;;26.61;100.00;98144.84;6236730;27;98519;-72
2023/07/24 02:30:49;;;;;;;;;6.80;5.80;;;;;26.62;100.00;98136.22;6245637;27;96418;-72
2023/07/24 02:33:52;;;;;;;;;7.40;6.40;;;;;26.57;100.00;98136.47;6233355;27;96964;-72
2023/07/24 02:36:56;;;;;;;;;8.00;6.33;;;;;26.54;100.00;98137.13;6238687;28;96416;-72
2023/07/24 02:39:59;;;;;;;;;5.00;5.00;;;;;26.53;100.00;98143.03;6251267;27;99198;-72
2023/07/24 02:43:05;;;;;;;;;7.00;7.00;;;;;26.50;100.00;98143.69;6258152;27;97794;-72
2023/07/24 02:46:08;;;;;;;;;5.00;4.20;;;;;26.50;100.00;98132.63;6246234;27;96327;-72
2023/07/24 02:49:11;;;;;;;;;7.00;7.00;;;;;26.28;100.00;98120.88;6236708;28;98890;-72
2023/07/24 02:52:15;;;;;;;;;6.00;5.00;;;;;26.29;100.00;98135.50;6256865;27;96687;-72
2023/07/24 02:55:18;;;;;;;;;7.00;7.00;;;;;26.08;100.00;98112.63;6243961;27;96337;-72
2023/07/24 02:58:22;;;;;;;;;7.60;7.00;;;;;26.20;100.00;98130.03;6236764;28;96446;-72
2023/07/24 03:01:27;;;;;;;;;6.67;5.67;;;;;26.10;100.00;98127.69;6247145;27;96452;-72
2023/07/24 03:04:31;;;;;;;;;6.20;6.00;;;;;26.04;100.00;98129.09;6243547;27;97558;-72
2023/07/24 03:07:37;;;;;;;;;8.20;7.20;;;;;25.88;100.00;98119.81;6237416;27;96298;-72
2023/07/24 03:10:42;;;;;;;;;8.00;8.00;;;;;25.82;100.00;98124.75;6239552;27;96426;-72
2023/07/24 03:13:47;;;;;;;;;7.00;5.50;;;;;25.79;100.00;98122.66;6248010;27;96597;-70
2023/07/24 03:16:50;;;;;;;;;8.40;7.00;;;;;25.86;100.00;98131.19;6233214;27;96568;-73
2023/07/24 03:19:55;;;;;;;;;6.00;5.00;;;;;25.83;100.00;98123.59;6240280;27;96927;-73
2023/07/24 03:22:58;;;;;;;;;8.00;7.50;;;;;25.83;100.00;98120.03;6252115;27;96447;-71
2023/07/24 03:26:01;;;;;;;;;5.00;5.00;;;;;25.80;100.00;98118.75;6229444;28;96688;-71
2023/07/24 03:29:06;;;;;;;;;8.00;7.00;;;;;25.79;100.00;98113.56;6254447;27;97147;-73
2023/07/24 03:32:10;;;;;;;;;7.00;6.00;;;;;25.82;100.00;98119.22;6244011;27;97261;-71
2023/07/24 03:35:13;;;;;;;;;8.00;7.00;;;;;25.87;100.00;98120.97;6237379;27;98008;-73
2023/07/24 03:38:16;;;;;;;;;6.00;6.00;;;;;25.89;100.00;98118.69;6233730;27;97527;-73
2023/07/24 03:41:19;;;;;;;;;6.80;6.80;;;;;25.80;100.00;98096.66;6247046;27;97088;-71
2023/07/24 03:44:24;;;;;;;;;7.75;7.00;;;;;25.99;100.00;98126.53;6259437;27;96932;-72
2023/07/24 03:47:28;;;;;;;;;8.00;7.00;;;;;26.03;100.00;98115.59;6249412;27;96411;-70
2023/07/24 03:50:31;;;;;;;;;5.40;5.40;;;;;25.99;100.00;98103.63;6265462;27;96226;-70
2023/07/24 03:53:35;;;;;;;;;9.00;9.00;;;;;26.19;100.00;98128.41;6261035;27;97123;-70
2023/07/24 03:56:38;;;;;;;;;9.00;8.00;;;;;26.25;100.00;98123.50;6255166;27;96443;-70
2023/07/24 03:59:43;;;;;;;;;5.50;5.00;;;;;26.32;100.00;98126.50;6265892;27;96357;-70
2023/07/24 04:02:46;;;;;;;;;9.40;8.40;;;;;26.34;100.00;98124.19;6246895;27;96678;-70
2023/07/24 04:05:49;;;;;;;;;7.33;6.33;;;;;26.37;100.00;98125.47;6234757;27;96851;-71
2023/07/24 04:08:52;;;;;;;;;7.60;6.00;;;;;26.34;100.00;98129.72;6265669;27;98384;-70
2023/07/24 04:11:55;;;;;;;;;7.00;6.00;;;;;26.35;100.00;98125.00;6262644;27;96939;-70
2023/07/24 04:15:00;;;;;;;;;7.00;6.67;;;;;26.34;100.00;98131.72;6241051;27;96704;-70
2023/07/24 04:18:03;;;;;;;;;9.00;7.75;;;;;26.34;100.00;98128.94;6255106;27;96291;-70
2023/07/24 04:21:07;;;;;;;;;7.60;7.60;;;;;26.37;100.00;98133.78;6258792;27;97368;-70
2023/07/24 04:24:10;;;;;;;;;7.00;7.00;;;;;26.42;100.00;98131.59;6259776;27;97077;-70
2023/07/24 04:27:13;;;;;;;;;8.00;7.00;;;;;26.47;100.00;98139.66;6240715;27;96861;-70
2023/07/24 04:30:18;;;;;;;;;11.00;10.60;;;;;26.54;100.00;98136.31;6241432;27;99116;-70
2023/07/24 04:33:21;;;;;;;;;5.80;5.00;;;;;26.51;100.00;98124.00;6264311;27;96903;-70
2023/07/24 04:36:24;;;;;;;;;7.20;7.00;;;;;26.57;100.00;98139.22;6254081;27;97155;-70
2023/07/24 04:39:27;;;;;;;;;10.00;8.40;;;;;26.34;100.00;98087.50;6259892;27;96395;-71
2023/07/24 04:42:31;;;;;;;;;6.60;6.60;;;;;26.72;100.00;98144.06;6259197;27;97456;-70
2023/07/24 04:45:36;;;;;;;;;6.60;6.00;;;;;26.76;100.00;98138.66;6257897;27;96869;-71
2023/07/24 04:48:39;;;;;;;;;9.40;7.40;;;;;26.81;100.00;98132.88;6254324;27;98099;-71
2023/07/24 04:51:42;;;;;;;;;10.00;8.33;;;;;26.94;100.00;98133.72;6257111;27;96580;-71
2023/07/24 04:54:46;;;;;;;;;7.60;7.60;;;;;27.08;100.00;98134.16;6252341;27;98469;-70
2023/07/24 04:57:49;;;;;;;;;7.60;7.00;;;;;27.17;100.00;98128.50;6244648;27;98839;-70
2023/07/24 05:00:53;;;;;;;;;6.80;6.80;;;;;27.30;100.00;98135.63;6261593;27;96840;-70
2023/07/24 05:03:57;;;;;;;;;7.20;7.20;;;;;27.37;100.00;98130.28;6260305;27;96361;-70
2023/07/24 05:07:00;;;;;;;;;5.75;5.25;;;;;27.47;100.00;98121.50;6243037;27;96818;-71
2023/07/24 05:10:04;;;;;;;;;6.00;5.00;;;;;27.56;100.00;98120.22;6252094;27;96332;-70
2023/07/24 05:13:07;;;;;;;;;7.00;7.00;;;;;27.66;100.00;98129.22;6254248;27;96273;-70
2023/07/24 05:16:16;;;;;;;;;8.00;7.40;;;;;27.81;100.00;98120.94;6241195;27;98435;-70
2023/07/24 05:19:19;;;;;;;;;7.40;6.80;;;;;27.95;100.00;98118.53;6262909;27;96485;-70
2023/07/24 05:22:23;;;;;;;;;6.60;6.00;;;;;28.07;100.00;98117.69;6237221;27;96930;-70
2023/07/24 05:25:26;;;;;;;;;7.00;6.60;;;;;28.25;100.00;98120.94;6261499;27;96354;-70
2023/07/24 05:28:30;;;;;;;;;8.00;6.60;;;;;28.37;100.00;98120.88;6262985;27;97183;-69
2023/07/24 05:31:36;;;;;;;;;8.00;7.00;;;;;28.30;100.00;98088.22;6258448;27;96217;-70
2023/07/24 05:34:39;;;;;;;;;5.00;5.00;;;;;28.53;100.00;98123.66;6248959;27;97054;-70
2023/07/24 05:37:44;;;;;;;;;6.00;6.00;;;;;28.59;100.00;98117.47;6246969;27;99086;-72
2023/07/24 05:40:54;;;;;;;;;6.60;6.00;;;;;28.59;100.00;98122.25;6229977;27;98429;-71
2023/07/24 05:43:57;;;;;;;;;6.00;5.00;;;;;28.65;100.00;98118.00;6250259;27;96617;-70
2023/07/24 05:47:03;;;;;;;;;7.00;6.00;;;;;28.61;100.00;98131.78;6254608;27;97313;-70
2023/07/24 05:50:07;;;;;;;;;6.40;5.00;;;;;28.62;100.00;98127.88;6229594;27;98483;-69
2023/07/24 05:53:11;;;;;;;;;6.40;6.40;;;;;28.53;100.00;98104.25;6245369;27;96854;-70
2023/07/24 05:56:14;;;;;;;;;7.00;6.00;;;;;28.80;100.00;98122.78;6239082;27;97026;-70
2023/07/24 05:59:17;;;;;;;;;6.50;6.00;;;;;28.90;100.00;98125.00;6247679;27;97114;-70
2023/07/24 06:02:22;;;;;;;;;5.80;5.00;;;;;29.03;100.00;98118.16;6253039;27;96864;-73
2023/07/24 06:05:25;;;;;;;;;8.40;8.00;;;;;29.03;100.00;98095.97;6258657;27;96383;-70
2023/07/24 06:08:28;;;;;;;;;6.00;5.00;;;;;29.18;100.00;98119.28;6259484;27;96355;-70
2023/07/24 06:11:32;;;;;;;;;7.00;6.80;;;;;29.20;100.00;98108.63;6255918;27;98942;-70
2023/07/24 06:14:35;;;;;;;;;7.00;6.00;;;;;29.28;100.00;98110.41;6260236;27;97471;-72
2023/07/24 06:17:39;;;;;;;;;9.40;8.40;;;;;29.53;100.00;98122.06;6259038;27;96372;-72
2023/07/24 06:20:42;;;;;;;;;10.00;8.00;;;;;29.53;100.00;98120.09;6263490;27;98452;-72
2023/07/24 06:23:46;;;;;;;;;8.75;8.75;;;;;29.47;100.00;98129.09;6265061;27;96330;-73
2023/07/24 06:26:49;;;;;;;;;10.40;8.40;;;;;29.53;100.00;98122.06;6263808;27;96446;-72
2023/07/24 06:29:52;;;;;;;;;9.00;7.40;;;;;29.51;100.00;98124.44;6263250;27;97239;-72
2023/07/24 06:33:08;;;;;;;;;7.00;7.00;;;;;29.60;100.00;98130.56;6255674;27;98468;-72
2023/07/24 06:36:12;;;;;;;;;9.00;8.00;;;;;29.74;100.00;98125.31;6238159;27;96970;-72
2023/07/24 06:39:15;;;;;;;;;8.00;7.00;;;;;29.82;100.00;98115.13;6260145;27;96379;-72
2023/07/24 06:42:18;;;;;;;;;10.20;8.00;;;;;30.11;100.00;98114.53;6249462;27;96755;-72
2023/07/24 06:45:22;;;;;;;;;9.40;9.00;;;;;30.25;100.00;98120.34;6242322;27;97092;-72
2023/07/24 06:48:26;;;;;;;;;8.40;8.00;;;;;30.43;100.00;98110.34;6238929;28;96848;-71
2023/07/24 06:51:29;;;;;;;;;7.00;5.60;;;;;30.37;100.00;98122.97;6237636;28;96668;-71
2023/07/24 06:54:33;;;;;;;;;6.75;6.75;;;;;30.50;100.00;98120.81;6251131;27;96521;-72
2023/07/24 06:57:36;;;;;;;;;8.00;8.00;;;;;30.67;100.00;98122.28;6262804;27;98630;-72
2023/07/24 07:00:39;;;;;;;;;6.00;6.00;;;;;30.82;100.00;98124.94;6262729;27;96723;-72
2023/07/24 07:03:43;;;;;;;;;7.00;6.00;;;;;31.06;100.00;98129.31;6263312;27;96889;-72
2023/07/24 07:06:47;;;;;;;;;6.60;6.00;;;;;31.33;100.00;98122.53;6237338;27;98677;-72
2023/07/24 07:09:50;;;;;;;;;7.00;5.80;;;;;31.60;100.00;98116.94;6236969;28;98975;-71
2023/07/24 07:12:54;;;;;;;;;8.50;7.00;;;;;31.62;100.00;98109.03;6220049;28;97150;-71
2023/07/24 07:15:58;;;;;;;;;8.00;7.00;;;;;31.77;100.00;98117.16;6242543;27;97050;-72
2023/07/24 07:19:03;;;;;;;;;6.80;6.00;;;;;31.94;100.00;98114.97;6236791;28;96272;-72
2023/07/24 07:22:07;;;;;;;;;8.00;7.00;;;;;31.76;99.16;98126.72;6238473;28;96560;-72
2023/07/24 07:25:10;;;;;;;;;8.00;7.20;;;;;31.87;100.00;98120.44;6255775;27;97745;-71
2023/07/24 07:28:13;;;;;;;;;9.00;9.00;;;;;32.02;100.00;98114.66;6236254;28;98351;-72
2023/07/24 07:31:16;;;;;;;;;7.00;7.00;;;;;32.00;99.32;98119.03;6237289;28;96469;-72
2023/07/24 07:34:21;;;;;;;;;8.00;7.00;;;;;32.10;98.74;98133.13;6237530;27;96420;-72
2023/07/24 07:37:26;;;;;;;;;10.00;9.00;;;;;32.18;97.78;98126.44;6262129;27;96144;-72
2023/07/24 07:40:30;;;;;;;;;9.00;8.00;;;;;32.27;95.33;98136.47;6262801;27;96328;-72
2023/07/24 07:43:33;;;;;;;;;9.40;7.00;;;;;32.34;97.11;98134.56;6258753;27;96871;-72
2023/07/24 07:46:36;;;;;;;;;9.00;9.00;;;;;32.22;94.80;98115.28;6236972;28;96330;-72
2023/07/24 07:49:41;;;;;;;;;9.40;9.00;;;;;32.04;96.83;98119.88;6236961;27;96828;-72
2023/07/24 07:52:45;;;;;;;;;9.00;8.40;;;;;32.03;98.74;98107.09;6249574;27;96274;-72
2023/07/24 07:55:56;;;;;;;;;8.80;8.40;;;;;31.97;95.06;98114.19;6239807;27;96507;-72
2023/07/24 07:58:59;;;;;;;;;9.00;8.00;;;;;31.94;86.61;98101.03;6240973;27;97360;-72
2023/07/24 08:02:03;;;;;;;;;7.00;6.50;;;;;32.10;86.85;98101.59;6252067;27;96486;-72
2023/07/24 08:05:08;;;;;;;;;8.00;6.75;;;;;32.46;86.43;98095.19;6238551;27;99015;-71
2023/07/24 08:08:22;;;;;;;;;8.00;7.00;;;;;32.75;85.59;98101.03;6236354;28;97208;-72
2023/07/24 08:11:25;;;;;;;;;7.00;6.00;;;;;33.05;85.13;98093.28;6240093;27;96408;-72
2023/07/24 08:14:28;;;;;;;;;8.00;7.60;;;;;33.18;81.56;98094.63;6249797;27;96516;-72
2023/07/24 08:17:32;;;;;;;;;8.00;8.00;;;;;33.22;82.80;98101.00;6254165;27;96277;-72
2023/07/24 08:20:38;;;;;;;;;9.00;9.00;;;;;33.45;84.37;98092.34;6261213;27;98367;-72
2023/07/24 08:23:42;;;;;;;;;7.75;6.00;;;;;33.41;81.80;98086.75;6250721;27;97156;-72
2023/07/24 08:26:45;;;;;;;;;8.00;6.00;;;;;33.32;83.21;98060.34;6253432;27;96637;-72
2023/07/24 08:29:51;;;;;;;;;6.00;6.00;;;;;33.54;84.31;98084.41;6265128;27;98482;-73
2023/07/24 08:32:54;;;;;;;;;6.20;6.20;;;;;33.75;79.95;98083.72;6262996;27;96278;-72
2023/07/24 08:36:02;;;;;;;;;8.50;8.00;;;;;33.86;81.40;98088.16;6240192;28;98456;-72
2023/07/24 08:39:05;;;;;;;;;8.00;6.00;;;;;33.99;80.40;98077.38;6248072;27;96676;-72
2023/07/24 08:42:12;;;;;;;;;8.20;7.20;;;;;34.00;79.21;98083.78;6248774;27;96387;-72
2023/07/24 08:45:17;;;;;;;;;8.00;7.00;;;;;34.04;82.40;98081.78;6263972;27;96961;-72
2023/07/24 08:48:22;;;;;;;;;7.00;6.50;;;;;33.82;76.47;98095.69;6253711;27;96856;-72
2023/07/24 08:51:28;;;;;;;;;7.00;6.00;;;;;33.75;80.25;98078.94;6246903;27;96974;-72
2023/07/24 08:54:31;;;;;;;;;7.60;6.60;;;;;33.74;79.86;98073.72;6243937;27;96256;-72
2023/07/24 08:57:35;;;;;;;;;10.00;8.00;;;;;34.03;77.50;98086.59;6256389;27;98858;-72
2023/07/24 09:00:39;;;;;;;;;8.00;8.00;;;;;33.98;77.70;98063.78;6248257;27;96669;-72
2023/07/24 09:03:42;;;;;;;;;7.40;6.00;;;;;34.16;75.59;98067.44;6260339;27;98826;-72
2023/07/24 09:06:47;;;;;;;;;7.00;6.20;;;;;34.11;78.80;98059.44;6256236;27;96883;-72
2023/07/24 09:09:50;;;;;;;;;8.00;8.00;;;;;34.26;77.17;98056.28;6265735;27;96939;-72
2023/07/24 09:12:54;;;;;;;;;7.75;7.50;;;;;34.61;79.66;98047.06;6244703;27;96950;-72
2023/07/24 09:15:58;;;;;;;;;8.60;8.00;;;;;34.83;71.77;98055.50;6258607;27;96211;-72
2023/07/24 09:19:02;;;;;;;;;7.00;6.00;;;;;35.30;71.01;98063.41;6268081;27;96957;-71
2023/07/24 09:22:16;;;;;;;;;7.75;6.75;;;;;34.78;61.86;98054.69;6270768;27;96319;-72
2023/07/24 09:25:31;;;;;;;;;8.00;7.40;;;;;35.21;64.03;98057.44;6269042;27;96401;-72
2023/07/24 09:28:34;;;;;;;;;7.25;7.00;;;;;35.12;68.07;98062.63;6269471;27;97119;-72
2023/07/24 09:31:38;;;;;;;;;6.40;6.00;;;;;35.07;67.45;98054.66;6270224;27;96518;-72
2023/07/24 09:34:43;;;;;;;;;7.00;6.00;;;;;35.34;65.30;98060.59;6269797;27;96391;-72
2023/07/24 09:37:47;;;;;;;;;7.00;7.00;;;;;35.56;65.79;98056.50;6265754;27;96328;-72
2023/07/24 09:40:55;;;;;;;;;8.60;7.60;;;;;35.98;67.57;98030.25;6226812;27;97270;-72
2023/07/24 09:43:59;;;;;;;;;7.00;7.00;;;;;36.59;67.90;98039.84;6265308;27;98446;-72
2023/07/24 09:47:02;;;;;;;;;9.00;7.00;;;;;36.79;63.07;98035.25;6269497;27;96356;-72
2023/07/24 09:50:26;;;;;;;;;8.40;7.00;;;;;36.85;62.06;98035.59;6250037;27;97227;-72
2023/07/24 09:53:35;;;;;;;;;8.00;8.00;;;;;36.70;59.45;98032.13;6243270;28;96605;-72
2023/07/24 09:56:39;;;;;;;;;6.60;6.00;;;;;36.78;59.83;98025.25;6226838;28;99114;-72
2023/07/24 09:59:55;;;;;;;;;10.00;8.50;;;;;36.81;60.37;98020.78;6255687;27;96101;-73
2023/07/24 10:02:59;;;;;;;;;10.00;10.00;;;;;36.69;61.54;98007.28;6253759;27;97430;-72
2023/07/24 10:06:03;;;;;;;;;8.00;7.50;;;;;36.96;62.26;97996.16;6268822;27;96234;-72
2023/07/24 10:09:08;;;;;;;;;12.80;11.00;;;;;36.96;61.63;98004.56;6268834;27;96344;-72
2023/07/24 10:12:12;;;;;;;;;13.00;10.00;;;;;36.58;58.04;97989.69;6252969;27;96811;-73
2023/07/24 10:15:15;;;;;;;;;6.00;6.00;;;;;36.02;56.20;97981.31;6259465;27;96420;-72
2023/07/24 10:18:26;;;;;;;;;8.60;7.00;;;;;35.82;60.38;97969.06;6262478;27;96206;-72
2023/07/24 10:21:29;;;;;;;;;9.40;9.00;;;;;35.53;63.96;97982.41;6264192;27;96320;-72
2023/07/24 10:24:35;;;;;;;;;8.20;7.20;;;;;35.18;66.28;97980.59;6252332;27;97780;-72
2023/07/24 10:27:46;;;;;;;;;9.00;8.50;;;;;35.00;66.57;97985.41;6248266;27;98358;-71
2023/07/24 10:30:56;;;;;;;;;9.00;8.00;;;;;34.84;69.16;97982.28;6264188;27;96239;-72
2023/07/24 10:34:05;;;;;;;;;10.40;9.00;;;;;34.62;72.10;97975.09;6269429;27;97135;-72
2023/07/24 10:37:10;;;;;;;;;8.80;6.00;;;;;34.55;70.74;97970.28;6268356;27;98834;-71
2023/07/24 10:40:22;;;;;;;;;9.25;8.00;;;;;34.77;70.72;97977.50;6268535;27;96355;-72
2023/07/24 10:43:25;;;;;;;;;9.00;7.00;;;;;35.06;70.62;97981.00;6257293;27;96534;-72
2023/07/24 10:46:37;;;;;;;;;10.00;8.00;;;;;35.14;69.69;97976.16;6268234;27;96314;-72
2023/07/24 10:49:49;;;;;;;;;9.00;9.00;;;;;35.37;69.03;97981.31;6243067;27;98397;-71
2023/07/24 10:52:52;;;;;;;;;9.00;8.00;;;;;35.41;70.46;97974.47;6261486;27;96386;-72
2023/07/24 10:55:56;;;;;;;;;8.40;7.60;;;;;35.30;70.52;97982.13;6252307;27;96301;-72
2023/07/24 10:59:03;;;;;;;;;11.00;9.00;;;;;35.10;69.93;97976.19;6266572;27;96373;-72
2023/07/24 11:02:09;;;;;;;;;8.00;7.75;;;;;34.83;68.92;97972.28;6271490;27;97203;-71
2023/07/24 11:05:14;;;;;;;;;8.40;8.00;;;;;34.48;70.96;97966.72;6269953;27;96322;-72
2023/07/24 11:08:19;;;;;;;;;7.50;7.00;;;;;34.29;72.14;97970.75;6250884;27;96461;-72
2023/07/24 11:11:29;;;;;;;;;9.00;8.75;;;;;34.20;74.06;97959.97;6239220;27;96776;-72
2023/07/24 11:14:33;;;;;;;;;7.40;7.00;;;;;34.21;73.25;97964.34;6266418;27;98500;-73
2023/07/24 11:17:37;;;;;;;;;11.00;10.00;;;;;34.29;75.57;97959.56;6266070;27;96302;-72
2023/07/24 11:20:46;;;;;;;;;10.00;8.00;;;;;34.32;69.35;97964.34;6252836;27;96400;-72
2023/07/24 11:23:51;;;;;;;;;11.00;9.00;;;;;34.43;70.42;97965.13;6235918;27;96818;-72
2023/07/24 11:26:55;;;;;;;;;8.00;7.60;;;;;34.49;66.46;97969.13;6264562;27;96891;-72
2023/07/24 11:29:59;;;;;;;;;9.00;8.00;;;;;34.34;65.52;97942.38;6249125;27;96240;-72
2023/07/24 11:33:05;;;;;;;;;10.00;8.40;;;;;34.50;68.96;97962.34;6259349;27;96710;-72
2023/07/24 11:36:09;;;;;;;;;11.50;10.00;;;;;34.55;67.71;97964.69;6264328;27;96855;-72
2023/07/24 11:39:12;;;;;;;;;10.67;9.00;;;;;34.73;67.61;97945.09;6257375;27;96871;-72
2023/07/24 11:42:17;;;;;;;;;9.20;8.20;;;;;35.15;65.65;97956.16;6264354;27;96617;-72
2023/07/24 11:45:20;;;;;;;;;8.00;7.00;;;;;35.63;67.99;97959.13;6264540;27;96888;-72
2023/07/24 11:48:25;;;;;;;;;9.00;8.00;;;;;35.76;64.97;97947.47;6259717;27;96384;-72
2023/07/24 11:51:28;;;;;;;;;10.00;8.50;;;;;35.81;64.37;97956.25;6249018;27;96675;-72
2023/07/24 11:54:35;;;;;;;;;10.00;8.00;;;;;35.75;64.06;97943.88;6241624;27;99463;-72
2023/07/24 11:57:40;;;;;;;;;10.33;8.00;;;;;35.71;63.08;97939.50;6265043;27;96690;-72
2023/07/24 12:00:43;;;;;;;;;11.00;9.00;;;;;35.76;65.06;97931.44;6264934;27;96597;-72
2023/07/24 12:03:47;;;;;;;;;10.00;10.00;;;;;35.94;63.77;97934.09;6270124;27;97075;-72
2023/07/24 12:06:51;;;;;;;;;8.00;7.50;;;;;36.10;63.08;97942.00;6265098;27;96237;-72
2023/07/24 12:09:55;;;;;;;;;11.00;10.00;;;;;36.14;61.65;97934.38;6240866;27;96926;-72
2023/07/24 12:13:00;;;;;;;;;8.00;7.00;;;;;36.29;60.40;97925.41;6267558;27;96891;-73
2023/07/24 12:16:04;;;;;;;;;8.20;8.00;;;;;36.25;61.18;97919.03;6252400;27;97184;-73
2023/07/24 12:19:07;;;;;;;;;10.00;9.40;;;;;36.29;62.85;97907.78;6265788;27;96298;-73
2023/07/24 12:22:10;;;;;;;;;10.00;9.00;;;;;36.26;60.88;97900.19;6242991;28;97195;-72
2023/07/24 12:25:14;;;;;;;;;10.50;9.50;;;;;36.27;59.59;97896.16;6259215;27;96755;-73
2023/07/24 12:28:18;;;;;;;;;9.75;9.00;;;;;36.62;61.28;97880.97;6269866;27;96363;-72
2023/07/24 12:31:22;;;;;;;;;11.00;9.50;;;;;36.71;59.32;97872.84;6268405;27;98730;-73
2023/07/24 12:34:25;;;;;;;;;8.00;7.40;;;;;36.76;58.49;97866.75;6265510;27;98682;-72
2023/07/24 12:37:29;;;;;;;;;9.00;8.80;;;;;36.73;56.27;97862.00;6265865;27;96421;-72
2023/07/24 12:40:32;;;;;;;;;8.00;8.00;;;;;36.41;57.73;97828.63;6249078;27;96365;-72
2023/07/24 12:43:37;;;;;;;;;10.50;9.00;;;;;36.46;59.31;97845.00;6245312;28;96623;-72
2023/07/24 12:46:40;;;;;;;;;10.00;9.00;;;;;36.32;58.38;97839.56;6244885;27;96329;-72
2023/07/24 12:49:43;;;;;;;;;8.60;8.60;;;;;36.19;59.83;97846.94;6244599;27;96895;-72
2023/07/24 12:52:47;;;;;;;;;8.25;7.00;;;;;36.05;62.40;97843.03;6268004;27;96433;-72
2023/07/24 12:55:51;;;;;;;;;8.75;8.75;;;;;35.95;62.13;97831.91;6244753;28;96585;-72
2023/07/24 12:58:55;;;;;;;;;8.00;7.40;;;;;35.73;62.66;97810.88;6245101;28;96296;-72
2023/07/24 13:01:58;;;;;;;;;11.80;9.00;;;;;35.72;63.22;97832.53;6244017;27;98457;-72
2023/07/24 13:05:02;;;;;;;;;9.20;8.00;;;;;35.51;69.90;97829.88;6244123;28;98404;-72
2023/07/24 13:08:05;;;;;;;;;10.20;9.60;;;;;35.27;73.48;97826.03;6243393;28;96342;-72
2023/07/24 13:11:09;;;;;;;;;11.00;10.00;;;;;35.26;76.29;97813.22;6258793;27;99536;-72
2023/07/24 13:14:14;;;;;;;;;10.80;8.80;;;;;35.26;78.48;97801.22;6248686;27;97030;-72
2023/07/24 13:17:17;;;;;;;;;8.75;7.75;;;;;35.37;74.69;97785.13;6268989;27;96353;-72
2023/07/24 13:20:20;;;;;;;;;11.40;9.20;;;;;35.67;77.00;97781.72;6268184;27;96330;-72
2023/07/24 13:23:23;;;;;;;;;11.80;10.80;;;;;35.80;68.93;97786.38;6260750;27;96900;-73
2023/07/24 13:26:27;;;;;;;;;8.60;8.00;;;;;36.01;66.69;97776.97;6259497;27;96612;-71
2023/07/24 13:29:32;;;;;;;;;12.00;10.00;;;;;36.43;62.89;97761.66;6249634;27;96257;-72
2023/07/24 13:32:36;;;;;;;;;9.40;9.00;;;;;36.76;66.45;97762.84;6238856;27;98775;-72
2023/07/24 13:35:39;;;;;;;;;9.00;8.00;;;;;36.86;63.21;97750.66;6267664;27;96351;-72
2023/07/24 13:38:42;;;;;;;;;10.80;9.00;;;;;36.98;60.86;97750.09;6269137;27;96339;-72
2023/07/24 13:41:45;;;;;;;;;10.00;9.00;;;;;37.33;61.43;97740.34;6262474;27;96946;-72
2023/07/24 13:44:50;;;;;;;;;10.60;9.60;;;;;37.38;62.20;97728.59;6263454;27;96926;-72
2023/07/24 13:47:53;;;;;;;;;11.00;10.00;;;;;37.43;62.74;97733.75;6268433;27;96536;-71
2023/07/24 13:50:57;;;;;;;;;9.00;7.00;;;;;37.35;64.22;97732.25;6267536;27;99124;-72
2023/07/24 13:54:00;;;;;;;;;10.00;9.00;;;;;37.15;66.64;97729.38;6246302;27;96804;-72
2023/07/24 13:57:07;;;;;;;;;9.00;8.00;;;;;37.05;64.92;97693.78;6257746;27;96165;-72
2023/07/24 14:00:13;;;;;;;;;9.00;8.00;;;;;37.17;65.26;97706.47;6243864;27;96821;-72
2023/07/24 14:03:37;;;;;;;;;8.00;7.00;;;;;36.79;66.22;97675.75;6242476;27;96203;-72
2023/07/24 14:06:41;;;;;;;;;9.00;8.00;;;;;36.93;64.91;97696.41;6266443;27;96320;-72
2023/07/24 14:09:44;;;;;;;;;9.00;9.00;;;;;36.74;65.02;97693.06;6264480;27;96346;-72
2023/07/24 14:12:47;;;;;;;;;11.00;8.75;;;;;36.76;68.08;97681.38;6268544;27;96395;-72
2023/07/24 14:15:52;;;;;;;;;11.00;10.00;;;;;36.48;64.17;97674.16;6262393;27;96283;-72
2023/07/24 14:18:55;;;;;;;;;9.00;8.00;;;;;36.10;70.87;97673.44;6258993;27;97180;-72